sensor_id;sensor_type;location;lat;lon;timestamp;P1;durP1;ratioP1;P2;durP2;ratioP2
69419;SDS011;71621;52.030;113.516;2024-02-04T00:02:36;53.90;;;19.38;;
69419;SDS011;71621;52.030;113.516;2024-02-04T00:05:41;42.63;;;16.92;;
69419;SDS011;71621;52.030;113.516;2024-02-04T00:08:45;39.30;;;15.55;;
69419;SDS011;71621;52.030;113.516;2024-02-04T00:12:07;29.63;;;13.75;;
69419;SDS011;71621;52.030;113.516;2024-02-04T00:15:29;52.38;;;20.20;;
69419;SDS011;71621;52.030;113.516;2024-02-04T00:18:33;52.17;;;22.17;;
69419;SDS011;71621;52.030;113.516;2024-02-04T00:21:38;98.35;;;36.25;;
69419;SDS011;71621;52.030;113.516;2024-02-04T00:24:41;52.28;;;26.17;;
69419;SDS011;71621;52.030;113.516;2024-02-04T00:27:45;31.90;;;14.90;;
69419;SDS011;71621;52.030;113.516;2024-02-04T00:30:48;40.65;;;13.10;;
69419;SDS011;71621;52.030;113.516;2024-02-04T00:33:52;40.08;;;12.02;;
69419;SDS011;71621;52.030;113.516;2024-02-04T00:36:56;21.50;;;10.02;;
69419;SDS011;71621;52.030;113.516;2024-02-04T00:40:00;22.25;;;11.13;;
69419;SDS011;71621;52.030;113.516;2024-02-04T00:43:21;16.15;;;7.45;;
69419;SDS011;71621;52.030;113.516;2024-02-04T00:46:25;29.80;;;9.88;;
69419;SDS011;71621;52.030;113.516;2024-02-04T00:49:29;22.37;;;11.07;;
69419;SDS011;71621;52.030;113.516;2024-02-04T00:52:32;36.20;;;13.55;;
69419;SDS011;71621;52.030;113.516;2024-02-04T00:55:36;41.05;;;11.90;;
69419;SDS011;71621;52.030;113.516;2024-02-04T00:58:40;17.53;;;9.80;;
69419;SDS011;71621;52.030;113.516;2024-02-04T01:01:44;12.77;;;6.20;;
69419;SDS011;71621;52.030;113.516;2024-02-04T01:05:06;29.40;;;7.93;;
69419;SDS011;71621;52.030;113.516;2024-02-04T01:08:10;13.85;;;6.10;;
69419;SDS011;71621;52.030;113.516;2024-02-04T01:11:14;26.77;;;10.43;;
69419;SDS011;71621;52.030;113.516;2024-02-04T01:14:17;20.50;;;7.78;;
69419;SDS011;71621;52.030;113.516;2024-02-04T01:17:21;21.15;;;10.30;;
69419;SDS011;71621;52.030;113.516;2024-02-04T01:20:25;17.43;;;8.40;;
69419;SDS011;71621;52.030;113.516;2024-02-04T01:23:29;36.47;;;12.07;;
69419;SDS011;71621;52.030;113.516;2024-02-04T01:26:33;119.55;;;44.28;;
69419;SDS011;71621;52.030;113.516;2024-02-04T01:29:37;30.70;;;15.53;;
69419;SDS011;71621;52.030;113.516;2024-02-04T01:32:41;43.53;;;12.60;;
69419;SDS011;71621;52.030;113.516;2024-02-04T01:35:45;31.38;;;11.75;;
69419;SDS011;71621;52.030;113.516;2024-02-04T01:38:48;51.47;;;15.52;;
69419;SDS011;71621;52.030;113.516;2024-02-04T01:41:52;44.15;;;16.05;;
69419;SDS011;71621;52.030;113.516;2024-02-04T01:44:56;52.92;;;22.85;;
69419;SDS011;71621;52.030;113.516;2024-02-04T01:47:59;68.00;;;29.48;;
69419;SDS011;71621;52.030;113.516;2024-02-04T01:51:03;75.37;;;30.70;;
69419;SDS011;71621;52.030;113.516;2024-02-04T01:54:08;61.08;;;23.30;;
69419;SDS011;71621;52.030;113.516;2024-02-04T01:57:32;23.30;;;14.07;;
69419;SDS011;71621;52.030;113.516;2024-02-04T02:00:37;60.57;;;24.13;;
69419;SDS011;71621;52.030;113.516;2024-02-04T02:03:41;59.92;;;26.05;;
69419;SDS011;71621;52.030;113.516;2024-02-04T02:06:45;65.30;;;25.98;;
69419;SDS011;71621;52.030;113.516;2024-02-04T02:09:49;61.53;;;20.35;;
69419;SDS011;71621;52.030;113.516;2024-02-04T02:12:59;45.45;;;19.10;;
69419;SDS011;71621;52.030;113.516;2024-02-04T02:16:11;34.22;;;16.70;;
69419;SDS011;71621;52.030;113.516;2024-02-04T02:19:54;69.28;;;26.08;;
69419;SDS011;71621;52.030;113.516;2024-02-04T02:26:22;60.58;;;21.77;;
69419;SDS011;71621;52.030;113.516;2024-02-04T02:29:26;74.88;;;34.50;;
69419;SDS011;71621;52.030;113.516;2024-02-04T02:32:30;71.40;;;33.53;;
69419;SDS011;71621;52.030;113.516;2024-02-04T02:35:51;80.20;;;31.30;;
69419;SDS011;71621;52.030;113.516;2024-02-04T02:39:01;88.88;;;31.70;;
69419;SDS011;71621;52.030;113.516;2024-02-04T02:42:07;48.92;;;21.95;;
69419;SDS011;71621;52.030;113.516;2024-02-04T02:45:14;83.80;;;25.33;;
69419;SDS011;71621;52.030;113.516;2024-02-04T02:48:20;78.63;;;23.98;;
69419;SDS011;71621;52.030;113.516;2024-02-04T02:51:25;45.45;;;20.38;;
69419;SDS011;71621;52.030;113.516;2024-02-04T02:54:28;39.80;;;14.00;;
69419;SDS011;71621;52.030;113.516;2024-02-04T02:57:33;28.77;;;11.38;;
69419;SDS011;71621;52.030;113.516;2024-02-04T03:03:58;28.43;;;11.43;;
69419;SDS011;71621;52.030;113.516;2024-02-04T03:07:02;35.85;;;11.43;;
69419;SDS011;71621;52.030;113.516;2024-02-04T03:10:08;21.60;;;11.15;;
69419;SDS011;71621;52.030;113.516;2024-02-04T03:13:12;58.20;;;15.85;;
69419;SDS011;71621;52.030;113.516;2024-02-04T03:16:16;39.90;;;14.88;;
69419;SDS011;71621;52.030;113.516;2024-02-04T03:19:21;42.80;;;9.95;;
69419;SDS011;71621;52.030;113.516;2024-02-04T03:22:41;34.10;;;11.05;;
69419;SDS011;71621;52.030;113.516;2024-02-04T03:25:47;37.57;;;13.57;;
69419;SDS011;71621;52.030;113.516;2024-02-04T03:28:50;34.05;;;12.05;;
69419;SDS011;71621;52.030;113.516;2024-02-04T03:31:57;37.10;;;15.18;;
69419;SDS011;71621;52.030;113.516;2024-02-04T03:35:01;43.80;;;16.40;;
69419;SDS011;71621;52.030;113.516;2024-02-04T03:38:06;43.25;;;14.00;;
69419;SDS011;71621;52.030;113.516;2024-02-04T03:41:10;62.55;;;21.05;;
69419;SDS011;71621;52.030;113.516;2024-02-04T03:44:13;42.15;;;17.85;;
69419;SDS011;71621;52.030;113.516;2024-02-04T03:47:17;59.08;;;21.02;;
69419;SDS011;71621;52.030;113.516;2024-02-04T03:50:38;56.67;;;24.70;;
69419;SDS011;71621;52.030;113.516;2024-02-04T03:53:41;80.47;;;26.52;;
69419;SDS011;71621;52.030;113.516;2024-02-04T03:56:46;119.27;;;34.87;;
69419;SDS011;71621;52.030;113.516;2024-02-04T03:59:49;76.13;;;28.20;;
69419;SDS011;71621;52.030;113.516;2024-02-04T04:02:53;108.03;;;33.78;;
69419;SDS011;71621;52.030;113.516;2024-02-04T04:05:56;91.67;;;35.73;;
69419;SDS011;71621;52.030;113.516;2024-02-04T04:09:01;101.50;;;37.45;;
69419;SDS011;71621;52.030;113.516;2024-02-04T04:12:04;130.30;;;39.17;;
69419;SDS011;71621;52.030;113.516;2024-02-04T04:15:08;118.15;;;38.58;;
69419;SDS011;71621;52.030;113.516;2024-02-04T04:18:12;66.18;;;23.80;;
69419;SDS011;71621;52.030;113.516;2024-02-04T04:21:17;146.27;;;51.85;;
69419;SDS011;71621;52.030;113.516;2024-02-04T04:24:40;111.03;;;39.45;;
69419;SDS011;71621;52.030;113.516;2024-02-04T04:27:44;85.97;;;32.30;;
69419;SDS011;71621;52.030;113.516;2024-02-04T04:34:28;133.25;;;41.70;;
69419;SDS011;71621;52.030;113.516;2024-02-04T04:37:31;163.83;;;51.93;;
69419;SDS011;71621;52.030;113.516;2024-02-04T04:40:35;167.13;;;56.45;;
69419;SDS011;71621;52.030;113.516;2024-02-04T04:43:39;158.32;;;55.55;;
69419;SDS011;71621;52.030;113.516;2024-02-04T04:46:43;171.70;;;58.50;;
69419;SDS011;71621;52.030;113.516;2024-02-04T04:49:46;163.93;;;57.55;;
69419;SDS011;71621;52.030;113.516;2024-02-04T04:52:50;180.02;;;64.53;;
69419;SDS011;71621;52.030;113.516;2024-02-04T04:55:53;202.27;;;68.90;;
69419;SDS011;71621;52.030;113.516;2024-02-04T04:58:58;179.67;;;59.03;;
69419;SDS011;71621;52.030;113.516;2024-02-04T05:02:01;201.30;;;69.18;;
69419;SDS011;71621;52.030;113.516;2024-02-04T05:05:05;213.32;;;72.82;;
69419;SDS011;71621;52.030;113.516;2024-02-04T05:08:09;206.07;;;71.10;;
69419;SDS011;71621;52.030;113.516;2024-02-04T05:11:13;237.25;;;84.32;;
69419;SDS011;71621;52.030;113.516;2024-02-04T05:14:16;287.00;;;92.20;;
69419;SDS011;71621;52.030;113.516;2024-02-04T05:17:20;249.23;;;83.82;;
69419;SDS011;71621;52.030;113.516;2024-02-04T05:20:24;266.45;;;87.80;;
69419;SDS011;71621;52.030;113.516;2024-02-04T05:23:27;236.82;;;81.10;;
69419;SDS011;71621;52.030;113.516;2024-02-04T05:26:31;268.35;;;88.25;;
69419;SDS011;71621;52.030;113.516;2024-02-04T05:29:35;243.27;;;80.37;;
69419;SDS011;71621;52.030;113.516;2024-02-04T05:32:58;218.40;;;74.38;;
69419;SDS011;71621;52.030;113.516;2024-02-04T05:36:01;244.93;;;79.47;;
69419;SDS011;71621;52.030;113.516;2024-02-04T05:39:24;240.40;;;81.77;;
69419;SDS011;71621;52.030;113.516;2024-02-04T05:42:27;237.85;;;85.63;;
69419;SDS011;71621;52.030;113.516;2024-02-04T05:45:31;281.67;;;88.97;;
69419;SDS011;71621;52.030;113.516;2024-02-04T05:48:35;259.42;;;87.78;;
69419;SDS011;71621;52.030;113.516;2024-02-04T05:51:39;369.27;;;122.43;;
69419;SDS011;71621;52.030;113.516;2024-02-04T05:54:43;249.98;;;88.20;;
69419;SDS011;71621;52.030;113.516;2024-02-04T05:57:47;293.55;;;97.30;;
69419;SDS011;71621;52.030;113.516;2024-02-04T06:00:51;206.40;;;73.73;;
69419;SDS011;71621;52.030;113.516;2024-02-04T06:03:55;222.95;;;75.45;;
69419;SDS011;71621;52.030;113.516;2024-02-04T06:06:58;241.50;;;75.53;;
69419;SDS011;71621;52.030;113.516;2024-02-04T06:10:02;215.97;;;71.50;;
69419;SDS011;71621;52.030;113.516;2024-02-04T06:13:06;239.15;;;72.97;;
69419;SDS011;71621;52.030;113.516;2024-02-04T06:16:10;209.27;;;68.35;;
69419;SDS011;71621;52.030;113.516;2024-02-04T06:19:14;227.10;;;71.63;;
69419;SDS011;71621;52.030;113.516;2024-02-04T06:22:18;237.63;;;76.45;;
69419;SDS011;71621;52.030;113.516;2024-02-04T06:25:23;223.27;;;72.72;;
69419;SDS011;71621;52.030;113.516;2024-02-04T06:28:27;251.80;;;82.13;;
69419;SDS011;71621;52.030;113.516;2024-02-04T06:31:30;223.93;;;74.47;;
69419;SDS011;71621;52.030;113.516;2024-02-04T06:34:34;241.93;;;77.57;;
69419;SDS011;71621;52.030;113.516;2024-02-04T06:37:38;221.02;;;73.80;;
69419;SDS011;71621;52.030;113.516;2024-02-04T06:40:45;229.97;;;75.40;;
69419;SDS011;71621;52.030;113.516;2024-02-04T06:43:49;216.32;;;77.45;;
69419;SDS011;71621;52.030;113.516;2024-02-04T06:46:53;223.50;;;76.70;;
69419;SDS011;71621;52.030;113.516;2024-02-04T06:49:56;238.07;;;80.72;;
69419;SDS011;71621;52.030;113.516;2024-02-04T06:53:00;253.73;;;81.18;;
69419;SDS011;71621;52.030;113.516;2024-02-04T06:56:03;254.50;;;84.80;;
69419;SDS011;71621;52.030;113.516;2024-02-04T06:59:10;238.68;;;82.80;;
69419;SDS011;71621;52.030;113.516;2024-02-04T07:02:13;237.40;;;79.47;;
69419;SDS011;71621;52.030;113.516;2024-02-04T07:05:17;243.20;;;81.22;;
69419;SDS011;71621;52.030;113.516;2024-02-04T07:08:30;257.40;;;81.45;;
69419;SDS011;71621;52.030;113.516;2024-02-04T07:11:34;237.07;;;84.27;;
69419;SDS011;71621;52.030;113.516;2024-02-04T07:14:37;256.10;;;80.85;;
69419;SDS011;71621;52.030;113.516;2024-02-04T07:17:41;248.13;;;84.47;;
69419;SDS011;71621;52.030;113.516;2024-02-04T07:20:46;242.88;;;80.35;;
69419;SDS011;71621;52.030;113.516;2024-02-04T07:23:51;363.63;;;136.32;;
69419;SDS011;71621;52.030;113.516;2024-02-04T07:26:54;225.38;;;71.28;;
69419;SDS011;71621;52.030;113.516;2024-02-04T07:29:58;203.15;;;67.03;;
69419;SDS011;71621;52.030;113.516;2024-02-04T07:33:02;214.80;;;66.43;;
69419;SDS011;71621;52.030;113.516;2024-02-04T07:36:07;211.52;;;66.95;;
69419;SDS011;71621;52.030;113.516;2024-02-04T07:39:11;227.38;;;72.90;;
69419;SDS011;71621;52.030;113.516;2024-02-04T07:42:15;217.63;;;71.23;;
69419;SDS011;71621;52.030;113.516;2024-02-04T07:45:18;204.43;;;69.70;;
69419;SDS011;71621;52.030;113.516;2024-02-04T07:48:22;204.75;;;68.20;;
69419;SDS011;71621;52.030;113.516;2024-02-04T07:51:26;204.27;;;65.05;;
69419;SDS011;71621;52.030;113.516;2024-02-04T07:54:30;194.73;;;61.65;;
69419;SDS011;71621;52.030;113.516;2024-02-04T07:57:33;195.00;;;61.95;;
69419;SDS011;71621;52.030;113.516;2024-02-04T08:00:37;203.15;;;64.38;;
69419;SDS011;71621;52.030;113.516;2024-02-04T08:03:41;196.70;;;66.50;;
69419;SDS011;71621;52.030;113.516;2024-02-04T08:06:47;202.55;;;69.72;;
69419;SDS011;71621;52.030;113.516;2024-02-04T08:09:56;185.82;;;64.22;;
69419;SDS011;71621;52.030;113.516;2024-02-04T08:13:00;184.60;;;59.80;;
69419;SDS011;71621;52.030;113.516;2024-02-04T08:16:05;180.75;;;59.78;;
69419;SDS011;71621;52.030;113.516;2024-02-04T08:19:09;191.00;;;60.03;;
69419;SDS011;71621;52.030;113.516;2024-02-04T08:22:12;154.93;;;49.03;;
69419;SDS011;71621;52.030;113.516;2024-02-04T08:25:17;175.68;;;57.42;;
69419;SDS011;71621;52.030;113.516;2024-02-04T08:28:21;172.90;;;55.97;;
69419;SDS011;71621;52.030;113.516;2024-02-04T08:31:26;157.95;;;56.03;;
69419;SDS011;71621;52.030;113.516;2024-02-04T08:34:33;181.10;;;63.90;;
69419;SDS011;71621;52.030;113.516;2024-02-04T08:37:37;184.48;;;58.58;;
69419;SDS011;71621;52.030;113.516;2024-02-04T08:40:41;180.90;;;57.35;;
69419;SDS011;71621;52.030;113.516;2024-02-04T08:43:44;166.23;;;55.03;;
69419;SDS011;71621;52.030;113.516;2024-02-04T08:46:48;188.57;;;61.70;;
69419;SDS011;71621;52.030;113.516;2024-02-04T08:49:53;149.32;;;50.00;;
69419;SDS011;71621;52.030;113.516;2024-02-04T08:53:00;156.02;;;49.88;;
69419;SDS011;71621;52.030;113.516;2024-02-04T08:56:08;131.57;;;46.15;;
69419;SDS011;71621;52.030;113.516;2024-02-04T08:59:12;248.80;;;87.82;;
69419;SDS011;71621;52.030;113.516;2024-02-04T09:02:16;147.40;;;51.22;;
69419;SDS011;71621;52.030;113.516;2024-02-04T09:05:23;146.37;;;51.30;;
69419;SDS011;71621;52.030;113.516;2024-02-04T09:08:27;117.10;;;37.08;;
69419;SDS011;71621;52.030;113.516;2024-02-04T09:11:30;155.15;;;52.10;;
69419;SDS011;71621;52.030;113.516;2024-02-04T09:14:34;182.20;;;59.43;;
69419;SDS011;71621;52.030;113.516;2024-02-04T09:17:38;219.73;;;65.30;;
69419;SDS011;71621;52.030;113.516;2024-02-04T09:20:42;205.52;;;65.38;;
69419;SDS011;71621;52.030;113.516;2024-02-04T09:23:46;215.07;;;67.85;;
69419;SDS011;71621;52.030;113.516;2024-02-04T09:26:50;209.82;;;66.07;;
69419;SDS011;71621;52.030;113.516;2024-02-04T09:29:54;206.70;;;62.33;;
69419;SDS011;71621;52.030;113.516;2024-02-04T09:33:02;515.45;;;195.50;;
69419;SDS011;71621;52.030;113.516;2024-02-04T09:36:06;264.27;;;82.43;;
69419;SDS011;71621;52.030;113.516;2024-02-04T09:39:11;150.80;;;47.95;;
69419;SDS011;71621;52.030;113.516;2024-02-04T09:42:19;51.35;;;17.98;;
69419;SDS011;71621;52.030;113.516;2024-02-04T09:45:27;38.87;;;14.17;;
69419;SDS011;71621;52.030;113.516;2024-02-04T09:48:33;38.55;;;13.10;;
69419;SDS011;71621;52.030;113.516;2024-02-04T09:51:37;44.13;;;12.82;;
69419;SDS011;71621;52.030;113.516;2024-02-04T09:54:44;40.67;;;11.88;;
69419;SDS011;71621;52.030;113.516;2024-02-04T09:57:51;39.47;;;12.35;;
69419;SDS011;71621;52.030;113.516;2024-02-04T10:00:57;32.45;;;12.02;;
69419;SDS011;71621;52.030;113.516;2024-02-04T10:04:03;43.47;;;14.73;;
69419;SDS011;71621;52.030;113.516;2024-02-04T10:07:08;45.03;;;12.90;;
69419;SDS011;71621;52.030;113.516;2024-02-04T10:10:12;38.33;;;12.68;;
69419;SDS011;71621;52.030;113.516;2024-02-04T10:13:16;40.50;;;13.15;;
69419;SDS011;71621;52.030;113.516;2024-02-04T10:16:19;39.47;;;13.90;;
69419;SDS011;71621;52.030;113.516;2024-02-04T10:19:24;32.30;;;11.75;;
69419;SDS011;71621;52.030;113.516;2024-02-04T10:22:29;34.65;;;12.43;;
69419;SDS011;71621;52.030;113.516;2024-02-04T10:25:33;36.13;;;13.23;;
69419;SDS011;71621;52.030;113.516;2024-02-04T10:28:37;35.13;;;11.70;;
69419;SDS011;71621;52.030;113.516;2024-02-04T10:31:41;32.13;;;11.15;;
69419;SDS011;71621;52.030;113.516;2024-02-04T10:34:45;37.35;;;12.77;;
69419;SDS011;71621;52.030;113.516;2024-02-04T10:37:49;38.50;;;11.97;;
69419;SDS011;71621;52.030;113.516;2024-02-04T10:40:54;30.77;;;10.50;;
69419;SDS011;71621;52.030;113.516;2024-02-04T10:43:57;30.17;;;9.13;;
69419;SDS011;71621;52.030;113.516;2024-02-04T10:47:05;24.87;;;8.03;;
69419;SDS011;71621;52.030;113.516;2024-02-04T10:50:12;29.15;;;11.10;;
69419;SDS011;71621;52.030;113.516;2024-02-04T10:53:19;29.10;;;10.18;;
69419;SDS011;71621;52.030;113.516;2024-02-04T10:56:25;31.73;;;11.65;;
69419;SDS011;71621;52.030;113.516;2024-02-04T10:59:32;34.20;;;9.95;;
69419;SDS011;71621;52.030;113.516;2024-02-04T11:02:37;28.25;;;9.82;;
69419;SDS011;71621;52.030;113.516;2024-02-04T11:05:41;38.30;;;12.45;;
69419;SDS011;71621;52.030;113.516;2024-02-04T11:08:46;29.37;;;10.43;;
69419;SDS011;71621;52.030;113.516;2024-02-04T11:11:50;35.00;;;10.52;;
69419;SDS011;71621;52.030;113.516;2024-02-04T11:14:57;36.33;;;12.65;;
69419;SDS011;71621;52.030;113.516;2024-02-04T11:28:31;29.08;;;11.07;;
69419;SDS011;71621;52.030;113.516;2024-02-04T11:31:38;35.42;;;12.40;;
69419;SDS011;71621;52.030;113.516;2024-02-04T11:34:45;31.50;;;9.52;;
69419;SDS011;71621;52.030;113.516;2024-02-04T11:37:49;30.80;;;9.75;;
69419;SDS011;71621;52.030;113.516;2024-02-04T11:40:53;37.93;;;9.73;;
69419;SDS011;71621;52.030;113.516;2024-02-04T11:43:57;43.55;;;13.38;;
69419;SDS011;71621;52.030;113.516;2024-02-04T11:47:03;39.17;;;12.77;;
69419;SDS011;71621;52.030;113.516;2024-02-04T11:50:08;33.87;;;10.47;;
69419;SDS011;71621;52.030;113.516;2024-02-04T11:53:13;34.10;;;9.73;;
69419;SDS011;71621;52.030;113.516;2024-02-04T11:56:18;27.75;;;9.02;;
69419;SDS011;71621;52.030;113.516;2024-02-04T11:59:22;35.83;;;11.82;;
69419;SDS011;71621;52.030;113.516;2024-02-04T12:02:27;39.55;;;14.63;;
69419;SDS011;71621;52.030;113.516;2024-02-04T12:05:32;27.30;;;9.80;;
69419;SDS011;71621;52.030;113.516;2024-02-04T12:08:37;35.00;;;9.30;;
69419;SDS011;71621;52.030;113.516;2024-02-04T12:11:41;32.67;;;9.90;;
69419;SDS011;71621;52.030;113.516;2024-02-04T12:14:45;29.42;;;8.90;;
69419;SDS011;71621;52.030;113.516;2024-02-04T12:17:49;28.08;;;9.38;;
69419;SDS011;71621;52.030;113.516;2024-02-04T12:20:53;25.37;;;8.00;;
69419;SDS011;71621;52.030;113.516;2024-02-04T12:23:57;26.02;;;9.38;;
69419;SDS011;71621;52.030;113.516;2024-02-04T12:27:02;29.05;;;9.95;;
69419;SDS011;71621;52.030;113.516;2024-02-04T12:30:07;22.30;;;8.52;;
69419;SDS011;71621;52.030;113.516;2024-02-04T12:33:12;25.83;;;8.85;;
69419;SDS011;71621;52.030;113.516;2024-02-04T12:36:16;21.90;;;6.43;;
69419;SDS011;71621;52.030;113.516;2024-02-04T12:39:20;23.55;;;9.27;;
69419;SDS011;71621;52.030;113.516;2024-02-04T12:42:23;20.03;;;7.67;;
69419;SDS011;71621;52.030;113.516;2024-02-04T12:45:28;20.77;;;7.30;;
69419;SDS011;71621;52.030;113.516;2024-02-04T12:48:32;26.85;;;8.48;;
69419;SDS011;71621;52.030;113.516;2024-02-04T12:51:35;22.43;;;6.90;;
69419;SDS011;71621;52.030;113.516;2024-02-04T12:54:42;26.85;;;7.38;;
69419;SDS011;71621;52.030;113.516;2024-02-04T12:57:47;24.45;;;8.07;;
69419;SDS011;71621;52.030;113.516;2024-02-04T13:01:00;29.05;;;9.02;;
69419;SDS011;71621;52.030;113.516;2024-02-04T13:04:05;27.98;;;9.45;;
69419;SDS011;71621;52.030;113.516;2024-02-04T13:07:10;26.23;;;9.02;;
69419;SDS011;71621;52.030;113.516;2024-02-04T13:10:19;25.67;;;8.95;;
69419;SDS011;71621;52.030;113.516;2024-02-04T13:13:23;25.03;;;8.53;;
69419;SDS011;71621;52.030;113.516;2024-02-04T13:16:31;27.00;;;8.13;;
69419;SDS011;71621;52.030;113.516;2024-02-04T13:19:36;23.33;;;6.60;;
69419;SDS011;71621;52.030;113.516;2024-02-04T13:22:41;20.10;;;6.17;;
69419;SDS011;71621;52.030;113.516;2024-02-04T13:25:44;19.35;;;6.95;;
69419;SDS011;71621;52.030;113.516;2024-02-04T13:28:49;22.50;;;6.50;;
69419;SDS011;71621;52.030;113.516;2024-02-04T13:31:53;15.10;;;6.13;;
69419;SDS011;71621;52.030;113.516;2024-02-04T13:34:57;24.75;;;8.05;;
69419;SDS011;71621;52.030;113.516;2024-02-04T13:38:14;21.52;;;7.63;;
69419;SDS011;71621;52.030;113.516;2024-02-04T13:41:17;25.63;;;7.80;;
69419;SDS011;71621;52.030;113.516;2024-02-04T13:44:21;26.33;;;7.07;;
69419;SDS011;71621;52.030;113.516;2024-02-04T13:47:25;20.23;;;5.93;;
69419;SDS011;71621;52.030;113.516;2024-02-04T13:50:28;20.27;;;6.60;;
69419;SDS011;71621;52.030;113.516;2024-02-04T13:53:33;16.57;;;5.70;;
69419;SDS011;71621;52.030;113.516;2024-02-04T13:56:38;19.70;;;6.15;;
69419;SDS011;71621;52.030;113.516;2024-02-04T13:59:41;20.33;;;5.90;;
69419;SDS011;71621;52.030;113.516;2024-02-04T14:02:45;23.02;;;7.40;;
69419;SDS011;71621;52.030;113.516;2024-02-04T14:05:49;21.70;;;6.93;;
69419;SDS011;71621;52.030;113.516;2024-02-04T14:08:54;18.33;;;4.57;;
69419;SDS011;71621;52.030;113.516;2024-02-04T14:11:58;39.83;;;12.13;;
69419;SDS011;71621;52.030;113.516;2024-02-04T14:15:01;21.83;;;5.23;;
69419;SDS011;71621;52.030;113.516;2024-02-04T14:18:05;18.02;;;4.35;;
69419;SDS011;71621;52.030;113.516;2024-02-04T14:21:09;25.48;;;5.70;;
69419;SDS011;71621;52.030;113.516;2024-02-04T14:24:17;14.57;;;4.70;;
69419;SDS011;71621;52.030;113.516;2024-02-04T14:27:38;13.75;;;4.53;;
69419;SDS011;71621;52.030;113.516;2024-02-04T14:30:42;16.95;;;5.07;;
69419;SDS011;71621;52.030;113.516;2024-02-04T14:33:46;14.57;;;4.78;;
69419;SDS011;71621;52.030;113.516;2024-02-04T14:36:50;12.20;;;4.68;;
69419;SDS011;71621;52.030;113.516;2024-02-04T14:39:54;18.83;;;6.15;;
69419;SDS011;71621;52.030;113.516;2024-02-04T14:42:58;22.77;;;6.15;;
69419;SDS011;71621;52.030;113.516;2024-02-04T14:46:05;20.53;;;5.03;;
69419;SDS011;71621;52.030;113.516;2024-02-04T14:49:09;15.20;;;4.72;;
69419;SDS011;71621;52.030;113.516;2024-02-04T14:52:13;14.80;;;4.78;;
69419;SDS011;71621;52.030;113.516;2024-02-04T14:55:17;16.20;;;4.90;;
69419;SDS011;71621;52.030;113.516;2024-02-04T14:58:24;15.63;;;3.88;;
69419;SDS011;71621;52.030;113.516;2024-02-04T15:01:27;13.25;;;4.55;;
69419;SDS011;71621;52.030;113.516;2024-02-04T15:04:31;21.77;;;5.07;;
69419;SDS011;71621;52.030;113.516;2024-02-04T15:07:35;12.68;;;4.85;;
69419;SDS011;71621;52.030;113.516;2024-02-04T15:10:38;17.20;;;4.30;;
69419;SDS011;71621;52.030;113.516;2024-02-04T15:13:42;12.65;;;4.32;;
69419;SDS011;71621;52.030;113.516;2024-02-04T15:16:47;14.77;;;5.13;;
69419;SDS011;71621;52.030;113.516;2024-02-04T15:19:53;14.38;;;4.20;;
69419;SDS011;71621;52.030;113.516;2024-02-04T15:22:56;13.85;;;4.60;;
69419;SDS011;71621;52.030;113.516;2024-02-04T15:26:03;10.10;;;3.90;;
69419;SDS011;71621;52.030;113.516;2024-02-04T15:29:10;12.32;;;3.72;;
69419;SDS011;71621;52.030;113.516;2024-02-04T15:32:21;9.18;;;3.33;;
69419;SDS011;71621;52.030;113.516;2024-02-04T15:35:25;8.23;;;2.95;;
69419;SDS011;71621;52.030;113.516;2024-02-04T15:38:29;10.07;;;3.75;;
69419;SDS011;71621;52.030;113.516;2024-02-04T15:41:32;14.95;;;4.10;;
69419;SDS011;71621;52.030;113.516;2024-02-04T15:44:36;12.13;;;3.60;;
69419;SDS011;71621;52.030;113.516;2024-02-04T15:47:40;18.13;;;5.10;;
69419;SDS011;71621;52.030;113.516;2024-02-04T15:50:53;17.80;;;4.13;;
69419;SDS011;71621;52.030;113.516;2024-02-04T15:53:57;10.50;;;3.67;;
69419;SDS011;71621;52.030;113.516;2024-02-04T15:57:07;14.87;;;3.67;;
69419;SDS011;71621;52.030;113.516;2024-02-04T16:00:12;15.25;;;4.45;;
69419;SDS011;71621;52.030;113.516;2024-02-04T16:03:28;12.57;;;4.18;;
69419;SDS011;71621;52.030;113.516;2024-02-04T16:06:32;16.60;;;3.38;;
69419;SDS011;71621;52.030;113.516;2024-02-04T16:09:37;13.23;;;3.72;;
69419;SDS011;71621;52.030;113.516;2024-02-04T16:13:01;16.25;;;4.75;;
69419;SDS011;71621;52.030;113.516;2024-02-04T16:16:05;10.25;;;3.50;;
69419;SDS011;71621;52.030;113.516;2024-02-04T16:19:12;12.40;;;3.70;;
69419;SDS011;71621;52.030;113.516;2024-02-04T16:22:18;11.82;;;3.53;;
69419;SDS011;71621;52.030;113.516;2024-02-04T16:25:22;9.10;;;3.00;;
69419;SDS011;71621;52.030;113.516;2024-02-04T16:28:32;7.03;;;3.10;;
69419;SDS011;71621;52.030;113.516;2024-02-04T16:31:35;21.73;;;4.07;;
69419;SDS011;71621;52.030;113.516;2024-02-04T16:34:40;11.15;;;3.65;;
69419;SDS011;71621;52.030;113.516;2024-02-04T16:37:44;10.65;;;3.42;;
69419;SDS011;71621;52.030;113.516;2024-02-04T16:40:47;12.20;;;3.45;;
69419;SDS011;71621;52.030;113.516;2024-02-04T16:43:51;18.90;;;3.55;;
69419;SDS011;71621;52.030;113.516;2024-02-04T16:46:55;14.90;;;4.45;;
69419;SDS011;71621;52.030;113.516;2024-02-04T16:50:18;19.60;;;5.43;;
69419;SDS011;71621;52.030;113.516;2024-02-04T16:53:22;14.93;;;4.90;;
69419;SDS011;71621;52.030;113.516;2024-02-04T16:56:26;19.63;;;5.25;;
69419;SDS011;71621;52.030;113.516;2024-02-04T16:59:30;17.17;;;3.80;;
69419;SDS011;71621;52.030;113.516;2024-02-04T17:02:33;13.57;;;3.72;;
69419;SDS011;71621;52.030;113.516;2024-02-04T17:05:37;14.45;;;3.35;;
69419;SDS011;71621;52.030;113.516;2024-02-04T17:08:57;11.45;;;3.47;;
69419;SDS011;71621;52.030;113.516;2024-02-04T17:12:04;14.82;;;4.38;;
69419;SDS011;71621;52.030;113.516;2024-02-04T17:15:08;15.30;;;5.28;;
69419;SDS011;71621;52.030;113.516;2024-02-04T17:18:15;13.10;;;4.18;;
69419;SDS011;71621;52.030;113.516;2024-02-04T17:21:36;15.67;;;4.50;;
69419;SDS011;71621;52.030;113.516;2024-02-04T17:24:47;12.82;;;4.75;;
69419;SDS011;71621;52.030;113.516;2024-02-04T17:27:56;12.93;;;4.13;;
69419;SDS011;71621;52.030;113.516;2024-02-04T17:31:04;20.47;;;5.67;;
69419;SDS011;71621;52.030;113.516;2024-02-04T17:34:08;16.95;;;5.20;;
69419;SDS011;71621;52.030;113.516;2024-02-04T17:37:12;16.35;;;5.97;;
69419;SDS011;71621;52.030;113.516;2024-02-04T17:40:16;13.90;;;4.70;;
69419;SDS011;71621;52.030;113.516;2024-02-04T17:43:19;14.82;;;5.38;;
69419;SDS011;71621;52.030;113.516;2024-02-04T17:46:23;15.23;;;5.32;;
69419;SDS011;71621;52.030;113.516;2024-02-04T17:49:27;19.42;;;5.50;;
69419;SDS011;71621;52.030;113.516;2024-02-04T17:52:31;24.60;;;5.40;;
69419;SDS011;71621;52.030;113.516;2024-02-04T17:55:35;10.57;;;4.07;;
69419;SDS011;71621;52.030;113.516;2024-02-04T17:58:41;10.73;;;3.42;;